sensor_id;sensor_type;location;lat;lon;timestamp;P1;durP1;ratioP1;P2;durP2;ratioP2
60430;SDS011;46285;45.122;20.726;2022-08-14T00:01:01;17.75;;;15.77;;
60430;SDS011;46285;45.122;20.726;2022-08-14T00:03:28;17.48;;;15.68;;
60430;SDS011;46285;45.122;20.726;2022-08-14T00:05:56;16.63;;;14.90;;
60430;SDS011;46285;45.122;20.726;2022-08-14T00:08:23;17.52;;;15.73;;
60430;SDS011;46285;45.122;20.726;2022-08-14T00:10:49;17.38;;;15.57;;
60430;SDS011;46285;45.122;20.726;2022-08-14T00:13:16;19.03;;;17.07;;
60430;SDS011;46285;45.122;20.726;2022-08-14T00:18:09;21.15;;;18.98;;
60430;SDS011;46285;45.122;20.726;2022-08-14T00:20:38;19.33;;;17.45;;
60430;SDS011;46285;45.122;20.726;2022-08-14T00:23:05;18.05;;;16.35;;
60430;SDS011;46285;45.122;20.726;2022-08-14T00:25:34;19.10;;;16.92;;
60430;SDS011;46285;45.122;20.726;2022-08-14T00:28:01;18.48;;;16.75;;
60430;SDS011;46285;45.122;20.726;2022-08-14T00:30:28;17.40;;;15.60;;
60430;SDS011;46285;45.122;20.726;2022-08-14T00:32:54;20.35;;;17.98;;
60430;SDS011;46285;45.122;20.726;2022-08-14T00:35:20;20.45;;;18.15;;
60430;SDS011;46285;45.122;20.726;2022-08-14T00:37:46;17.20;;;15.60;;
60430;SDS011;46285;45.122;20.726;2022-08-14T00:40:15;19.48;;;17.20;;
60430;SDS011;46285;45.122;20.726;2022-08-14T00:42:42;19.25;;;16.70;;
60430;SDS011;46285;45.122;20.726;2022-08-14T00:45:09;18.55;;;16.70;;
60430;SDS011;46285;45.122;20.726;2022-08-14T00:47:36;18.25;;;16.48;;
60430;SDS011;46285;45.122;20.726;2022-08-14T00:50:04;19.55;;;17.25;;
60430;SDS011;46285;45.122;20.726;2022-08-14T00:52:31;17.65;;;15.75;;
60430;SDS011;46285;45.122;20.726;2022-08-14T00:54:58;18.73;;;16.83;;
60430;SDS011;46285;45.122;20.726;2022-08-14T00:57:25;19.70;;;17.25;;
60430;SDS011;46285;45.122;20.726;2022-08-14T00:59:52;18.48;;;16.58;;
60430;SDS011;46285;45.122;20.726;2022-08-14T01:02:18;18.60;;;16.60;;
60430;SDS011;46285;45.122;20.726;2022-08-14T01:04:49;19.80;;;17.92;;
60430;SDS011;46285;45.122;20.726;2022-08-14T01:07:16;18.98;;;16.98;;
60430;SDS011;46285;45.122;20.726;2022-08-14T01:09:58;17.40;;;15.65;;
60430;SDS011;46285;45.122;20.726;2022-08-14T01:12:26;19.23;;;17.33;;
60430;SDS011;46285;45.122;20.726;2022-08-14T01:14:52;18.58;;;16.63;;
60430;SDS011;46285;45.122;20.726;2022-08-14T01:17:22;18.60;;;16.60;;
60430;SDS011;46285;45.122;20.726;2022-08-14T01:19:49;19.45;;;17.52;;
60430;SDS011;46285;45.122;20.726;2022-08-14T01:22:33;17.45;;;15.85;;
60430;SDS011;46285;45.122;20.726;2022-08-14T01:25:00;19.30;;;17.45;;
60430;SDS011;46285;45.122;20.726;2022-08-14T01:29:56;18.67;;;16.63;;
60430;SDS011;46285;45.122;20.726;2022-08-14T01:32:22;24.42;;;17.70;;
60430;SDS011;46285;45.122;20.726;2022-08-14T01:34:53;19.50;;;17.45;;
60430;SDS011;46285;45.122;20.726;2022-08-14T01:37:19;20.35;;;17.38;;
60430;SDS011;46285;45.122;20.726;2022-08-14T01:39:52;19.23;;;16.95;;
60430;SDS011;46285;45.122;20.726;2022-08-14T01:42:19;19.00;;;16.90;;
60430;SDS011;46285;45.122;20.726;2022-08-14T01:44:45;19.15;;;17.13;;
60430;SDS011;46285;45.122;20.726;2022-08-14T01:47:16;21.20;;;19.05;;
60430;SDS011;46285;45.122;20.726;2022-08-14T01:49:43;20.35;;;18.13;;
60430;SDS011;46285;45.122;20.726;2022-08-14T01:52:09;19.80;;;17.15;;
60430;SDS011;46285;45.122;20.726;2022-08-14T01:54:37;18.83;;;16.92;;
60430;SDS011;46285;45.122;20.726;2022-08-14T01:57:03;19.20;;;16.55;;
60430;SDS011;46285;45.122;20.726;2022-08-14T01:59:34;19.52;;;17.52;;
60430;SDS011;46285;45.122;20.726;2022-08-14T02:02:03;21.10;;;18.92;;
60430;SDS011;46285;45.122;20.726;2022-08-14T02:04:34;19.23;;;17.25;;
60430;SDS011;46285;45.122;20.726;2022-08-14T02:07:01;20.88;;;18.58;;
60430;SDS011;46285;45.122;20.726;2022-08-14T02:09:28;19.57;;;17.57;;
60430;SDS011;46285;45.122;20.726;2022-08-14T02:12:02;22.83;;;16.50;;
60430;SDS011;46285;45.122;20.726;2022-08-14T02:14:28;19.50;;;17.50;;
60430;SDS011;46285;45.122;20.726;2022-08-14T02:16:55;19.92;;;17.63;;
60430;SDS011;46285;45.122;20.726;2022-08-14T02:19:23;20.23;;;18.17;;
60430;SDS011;46285;45.122;20.726;2022-08-14T02:21:52;19.98;;;17.88;;
60430;SDS011;46285;45.122;20.726;2022-08-14T02:24:22;18.00;;;16.20;;
60430;SDS011;46285;45.122;20.726;2022-08-14T02:26:49;18.10;;;16.35;;
60430;SDS011;46285;45.122;20.726;2022-08-14T02:29:20;18.58;;;16.08;;
60430;SDS011;46285;45.122;20.726;2022-08-14T02:31:48;18.90;;;16.88;;
60430;SDS011;46285;45.122;20.726;2022-08-14T02:34:20;17.17;;;15.45;;
60430;SDS011;46285;45.122;20.726;2022-08-14T02:36:48;20.10;;;15.85;;
60430;SDS011;46285;45.122;20.726;2022-08-14T02:39:15;16.67;;;14.98;;
60430;SDS011;46285;45.122;20.726;2022-08-14T02:41:41;17.80;;;16.10;;
60430;SDS011;46285;45.122;20.726;2022-08-14T02:44:08;18.88;;;16.88;;
60430;SDS011;46285;45.122;20.726;2022-08-14T02:46:35;18.35;;;16.38;;
60430;SDS011;46285;45.122;20.726;2022-08-14T02:49:02;18.33;;;16.38;;
60430;SDS011;46285;45.122;20.726;2022-08-14T02:51:29;18.13;;;16.27;;
60430;SDS011;46285;45.122;20.726;2022-08-14T02:53:55;18.17;;;16.38;;
60430;SDS011;46285;45.122;20.726;2022-08-14T02:56:22;16.93;;;15.27;;
60430;SDS011;46285;45.122;20.726;2022-08-14T02:58:51;17.77;;;15.88;;
60430;SDS011;46285;45.122;20.726;2022-08-14T03:01:20;17.05;;;15.35;;
60430;SDS011;46285;45.122;20.726;2022-08-14T03:03:47;18.10;;;16.20;;
60430;SDS011;46285;45.122;20.726;2022-08-14T03:06:14;17.70;;;16.00;;
60430;SDS011;46285;45.122;20.726;2022-08-14T03:08:41;17.08;;;15.48;;
60430;SDS011;46285;45.122;20.726;2022-08-14T03:11:11;16.60;;;14.95;;
60430;SDS011;46285;45.122;20.726;2022-08-14T03:13:44;18.08;;;16.33;;
60430;SDS011;46285;45.122;20.726;2022-08-14T03:16:12;17.83;;;16.05;;
60430;SDS011;46285;45.122;20.726;2022-08-14T03:21:10;17.83;;;16.13;;
60430;SDS011;46285;45.122;20.726;2022-08-14T03:23:38;18.33;;;16.52;;
60430;SDS011;46285;45.122;20.726;2022-08-14T03:26:08;17.67;;;15.98;;
60430;SDS011;46285;45.122;20.726;2022-08-14T03:28:35;18.48;;;16.60;;
60430;SDS011;46285;45.122;20.726;2022-08-14T03:31:04;19.08;;;17.25;;
60430;SDS011;46285;45.122;20.726;2022-08-14T03:33:31;18.00;;;16.30;;
60430;SDS011;46285;45.122;20.726;2022-08-14T03:35:58;21.33;;;18.90;;
60430;SDS011;46285;45.122;20.726;2022-08-14T03:38:25;19.15;;;17.35;;
60430;SDS011;46285;45.122;20.726;2022-08-14T03:40:52;20.93;;;18.73;;
60430;SDS011;46285;45.122;20.726;2022-08-14T03:43:18;18.48;;;16.60;;
60430;SDS011;46285;45.122;20.726;2022-08-14T03:45:44;20.83;;;18.83;;
60430;SDS011;46285;45.122;20.726;2022-08-14T03:48:12;19.60;;;17.70;;
60430;SDS011;46285;45.122;20.726;2022-08-14T03:50:44;20.50;;;18.50;;
60430;SDS011;46285;45.122;20.726;2022-08-14T03:53:10;20.83;;;18.67;;
60430;SDS011;46285;45.122;20.726;2022-08-14T03:55:38;20.88;;;18.70;;
60430;SDS011;46285;45.122;20.726;2022-08-14T03:58:05;20.73;;;18.53;;
60430;SDS011;46285;45.122;20.726;2022-08-14T04:00:32;20.98;;;18.85;;
60430;SDS011;46285;45.122;20.726;2022-08-14T04:02:58;20.67;;;18.67;;
60430;SDS011;46285;45.122;20.726;2022-08-14T04:05:24;22.13;;;19.92;;
60430;SDS011;46285;45.122;20.726;2022-08-14T04:07:51;21.05;;;19.05;;
60430;SDS011;46285;45.122;20.726;2022-08-14T04:10:17;21.88;;;19.77;;
60430;SDS011;46285;45.122;20.726;2022-08-14T04:12:43;20.98;;;18.88;;
60430;SDS011;46285;45.122;20.726;2022-08-14T04:15:10;19.35;;;17.45;;
60430;SDS011;46285;45.122;20.726;2022-08-14T04:17:36;22.17;;;19.88;;
60430;SDS011;46285;45.122;20.726;2022-08-14T04:20:03;20.23;;;18.23;;
60430;SDS011;46285;45.122;20.726;2022-08-14T04:22:31;20.10;;;18.00;;
60430;SDS011;46285;45.122;20.726;2022-08-14T04:24:57;22.88;;;18.48;;
60430;SDS011;46285;45.122;20.726;2022-08-14T04:27:23;19.98;;;18.08;;
60430;SDS011;46285;45.122;20.726;2022-08-14T04:32:17;20.02;;;18.02;;
60430;SDS011;46285;45.122;20.726;2022-08-14T04:34:43;19.27;;;17.27;;
60430;SDS011;46285;45.122;20.726;2022-08-14T04:37:09;19.88;;;17.92;;
60430;SDS011;46285;45.122;20.726;2022-08-14T04:39:54;19.33;;;17.42;;
60430;SDS011;46285;45.122;20.726;2022-08-14T04:42:39;19.00;;;17.10;;
60430;SDS011;46285;45.122;20.726;2022-08-14T04:45:25;18.67;;;16.73;;
60430;SDS011;46285;45.122;20.726;2022-08-14T04:47:56;19.55;;;17.40;;
60430;SDS011;46285;45.122;20.726;2022-08-14T04:50:42;19.10;;;17.15;;
60430;SDS011;46285;45.122;20.726;2022-08-14T04:53:09;19.13;;;17.15;;
60430;SDS011;46285;45.122;20.726;2022-08-14T04:55:37;20.63;;;18.73;;
60430;SDS011;46285;45.122;20.726;2022-08-14T04:58:03;18.93;;;17.03;;
60430;SDS011;46285;45.122;20.726;2022-08-14T05:00:30;17.73;;;15.85;;
60430;SDS011;46285;45.122;20.726;2022-08-14T05:02:57;18.17;;;16.45;;
60430;SDS011;46285;45.122;20.726;2022-08-14T05:05:23;18.73;;;16.35;;
60430;SDS011;46285;45.122;20.726;2022-08-14T05:07:50;15.70;;;14.20;;
60430;SDS011;46285;45.122;20.726;2022-08-14T05:10:16;16.23;;;14.63;;
60430;SDS011;46285;45.122;20.726;2022-08-14T05:12:48;14.82;;;13.43;;
60430;SDS011;46285;45.122;20.726;2022-08-14T05:15:16;14.70;;;13.27;;
60430;SDS011;46285;45.122;20.726;2022-08-14T05:17:45;16.20;;;14.60;;
60430;SDS011;46285;45.122;20.726;2022-08-14T05:20:13;15.43;;;13.82;;
60430;SDS011;46285;45.122;20.726;2022-08-14T05:22:39;15.88;;;14.25;;
60430;SDS011;46285;45.122;20.726;2022-08-14T05:25:05;15.85;;;14.30;;
60430;SDS011;46285;45.122;20.726;2022-08-14T05:27:31;16.33;;;14.77;;
60430;SDS011;46285;45.122;20.726;2022-08-14T05:29:58;15.38;;;13.40;;
60430;SDS011;46285;45.122;20.726;2022-08-14T05:32:24;14.45;;;13.02;;
60430;SDS011;46285;45.122;20.726;2022-08-14T05:34:51;15.15;;;13.60;;
60430;SDS011;46285;45.122;20.726;2022-08-14T05:37:17;14.68;;;13.27;;
60430;SDS011;46285;45.122;20.726;2022-08-14T05:39:43;16.17;;;14.48;;
60430;SDS011;46285;45.122;20.726;2022-08-14T05:42:09;16.50;;;14.90;;
60430;SDS011;46285;45.122;20.726;2022-08-14T05:44:36;14.98;;;13.48;;
60430;SDS011;46285;45.122;20.726;2022-08-14T05:47:02;14.50;;;12.82;;
60430;SDS011;46285;45.122;20.726;2022-08-14T05:49:28;15.05;;;13.52;;
60430;SDS011;46285;45.122;20.726;2022-08-14T05:51:55;14.93;;;13.27;;
60430;SDS011;46285;45.122;20.726;2022-08-14T05:54:21;14.27;;;12.07;;
60430;SDS011;46285;45.122;20.726;2022-08-14T05:56:47;12.98;;;11.68;;
60430;SDS011;46285;45.122;20.726;2022-08-14T05:59:13;14.20;;;12.70;;
60430;SDS011;46285;45.122;20.726;2022-08-14T06:01:39;14.55;;;13.05;;
60430;SDS011;46285;45.122;20.726;2022-08-14T06:04:05;13.30;;;11.75;;
60430;SDS011;46285;45.122;20.726;2022-08-14T06:06:32;14.10;;;12.63;;
60430;SDS011;46285;45.122;20.726;2022-08-14T06:08:58;14.13;;;12.63;;
60430;SDS011;46285;45.122;20.726;2022-08-14T06:11:24;14.48;;;12.98;;
60430;SDS011;46285;45.122;20.726;2022-08-14T06:13:51;14.52;;;13.13;;
60430;SDS011;46285;45.122;20.726;2022-08-14T06:16:17;13.98;;;12.57;;
60430;SDS011;46285;45.122;20.726;2022-08-14T06:18:47;14.30;;;12.68;;
60430;SDS011;46285;45.122;20.726;2022-08-14T06:21:13;14.48;;;13.07;;
60430;SDS011;46285;45.122;20.726;2022-08-14T06:23:40;14.27;;;12.83;;
60430;SDS011;46285;45.122;20.726;2022-08-14T06:26:06;14.55;;;12.02;;
60430;SDS011;46285;45.122;20.726;2022-08-14T06:28:32;14.40;;;12.43;;
60430;SDS011;46285;45.122;20.726;2022-08-14T06:30:58;13.70;;;12.20;;
60430;SDS011;46285;45.122;20.726;2022-08-14T06:33:24;11.88;;;10.25;;
60430;SDS011;46285;45.122;20.726;2022-08-14T06:35:50;15.68;;;12.02;;
60430;SDS011;46285;45.122;20.726;2022-08-14T06:38:21;13.10;;;10.68;;
60430;SDS011;46285;45.122;20.726;2022-08-14T06:40:48;11.15;;;9.57;;
60430;SDS011;46285;45.122;20.726;2022-08-14T06:43:15;12.35;;;10.00;;
60430;SDS011;46285;45.122;20.726;2022-08-14T06:45:43;10.77;;;9.45;;
60430;SDS011;46285;45.122;20.726;2022-08-14T06:50:42;12.10;;;9.98;;
60430;SDS011;46285;45.122;20.726;2022-08-14T06:53:08;12.45;;;11.02;;
60430;SDS011;46285;45.122;20.726;2022-08-14T06:55:36;12.85;;;9.80;;
60430;SDS011;46285;45.122;20.726;2022-08-14T06:58:02;11.00;;;9.18;;
60430;SDS011;46285;45.122;20.726;2022-08-14T07:00:29;12.00;;;10.13;;
60430;SDS011;46285;45.122;20.726;2022-08-14T07:02:55;12.05;;;9.65;;
60430;SDS011;46285;45.122;20.726;2022-08-14T07:05:40;10.85;;;9.57;;
60430;SDS011;46285;45.122;20.726;2022-08-14T07:10:39;11.80;;;9.35;;
60430;SDS011;46285;45.122;20.726;2022-08-14T07:13:07;15.23;;;9.40;;
60430;SDS011;46285;45.122;20.726;2022-08-14T07:15:33;11.73;;;9.02;;
60430;SDS011;46285;45.122;20.726;2022-08-14T07:18:00;13.68;;;10.07;;
60430;SDS011;46285;45.122;20.726;2022-08-14T07:20:27;14.73;;;9.85;;
60430;SDS011;46285;45.122;20.726;2022-08-14T07:22:54;11.65;;;9.25;;
60430;SDS011;46285;45.122;20.726;2022-08-14T07:25:24;10.93;;;9.80;;
60430;SDS011;46285;45.122;20.726;2022-08-14T07:27:51;12.45;;;9.10;;
60430;SDS011;46285;45.122;20.726;2022-08-14T07:30:17;9.60;;;8.32;;
60430;SDS011;46285;45.122;20.726;2022-08-14T07:32:43;12.55;;;10.25;;
60430;SDS011;46285;45.122;20.726;2022-08-14T07:35:09;10.60;;;8.23;;
60430;SDS011;46285;45.122;20.726;2022-08-14T07:37:35;11.77;;;8.55;;
60430;SDS011;46285;45.122;20.726;2022-08-14T07:40:02;11.65;;;9.18;;
60430;SDS011;46285;45.122;20.726;2022-08-14T07:44:57;14.88;;;8.93;;
60430;SDS011;46285;45.122;20.726;2022-08-14T07:47:24;13.18;;;8.23;;
60430;SDS011;46285;45.122;20.726;2022-08-14T07:49:54;14.05;;;8.85;;
60430;SDS011;46285;45.122;20.726;2022-08-14T07:52:22;11.35;;;8.82;;
60430;SDS011;46285;45.122;20.726;2022-08-14T07:54:49;10.02;;;7.60;;
60430;SDS011;46285;45.122;20.726;2022-08-14T07:57:15;8.70;;;6.97;;
60430;SDS011;46285;45.122;20.726;2022-08-14T07:59:42;12.02;;;8.55;;
60430;SDS011;46285;45.122;20.726;2022-08-14T08:02:12;9.60;;;8.40;;
60430;SDS011;46285;45.122;20.726;2022-08-14T08:04:42;10.20;;;8.30;;
60430;SDS011;46285;45.122;20.726;2022-08-14T08:07:09;11.25;;;9.57;;
60430;SDS011;46285;45.122;20.726;2022-08-14T08:09:35;9.98;;;7.13;;
60430;SDS011;46285;45.122;20.726;2022-08-14T08:12:02;9.90;;;8.23;;
60430;SDS011;46285;45.122;20.726;2022-08-14T08:14:31;8.00;;;6.55;;
60430;SDS011;46285;45.122;20.726;2022-08-14T08:16:58;9.73;;;7.57;;
60430;SDS011;46285;45.122;20.726;2022-08-14T08:19:24;9.35;;;7.65;;
60430;SDS011;46285;45.122;20.726;2022-08-14T08:21:51;10.15;;;7.75;;
60430;SDS011;46285;45.122;20.726;2022-08-14T08:24:18;9.25;;;7.55;;
60430;SDS011;46285;45.122;20.726;2022-08-14T08:26:45;9.88;;;7.38;;
60430;SDS011;46285;45.122;20.726;2022-08-14T08:29:17;12.27;;;8.00;;
60430;SDS011;46285;45.122;20.726;2022-08-14T08:31:47;10.43;;;8.30;;
60430;SDS011;46285;45.122;20.726;2022-08-14T08:34:14;10.23;;;8.00;;
60430;SDS011;46285;45.122;20.726;2022-08-14T08:36:42;10.20;;;7.95;;
60430;SDS011;46285;45.122;20.726;2022-08-14T08:39:08;10.60;;;7.88;;
60430;SDS011;46285;45.122;20.726;2022-08-14T08:41:42;12.53;;;8.80;;
60430;SDS011;46285;45.122;20.726;2022-08-14T08:44:09;10.65;;;8.38;;
60430;SDS011;46285;45.122;20.726;2022-08-14T08:46:35;11.80;;;8.05;;
60430;SDS011;46285;45.122;20.726;2022-08-14T08:49:02;11.13;;;7.32;;
60430;SDS011;46285;45.122;20.726;2022-08-14T08:51:33;11.48;;;8.27;;
60430;SDS011;46285;45.122;20.726;2022-08-14T08:56:41;11.13;;;7.38;;
60430;SDS011;46285;45.122;20.726;2022-08-14T08:59:15;9.55;;;7.53;;
60430;SDS011;46285;45.122;20.726;2022-08-14T09:01:45;10.50;;;8.77;;
60430;SDS011;46285;45.122;20.726;2022-08-14T09:04:11;10.10;;;8.35;;
60430;SDS011;46285;45.122;20.726;2022-08-14T09:06:47;10.25;;;8.07;;
60430;SDS011;46285;45.122;20.726;2022-08-14T09:09:22;12.77;;;8.43;;
60430;SDS011;46285;45.122;20.726;2022-08-14T09:11:52;10.97;;;8.13;;
60430;SDS011;46285;45.122;20.726;2022-08-14T09:14:23;10.23;;;8.10;;
60430;SDS011;46285;45.122;20.726;2022-08-14T09:16:49;13.13;;;8.95;;
60430;SDS011;46285;45.122;20.726;2022-08-14T09:19:16;11.65;;;8.95;;
60430;SDS011;46285;45.122;20.726;2022-08-14T09:21:42;11.33;;;10.00;;
60430;SDS011;46285;45.122;20.726;2022-08-14T09:24:10;11.48;;;10.05;;
60430;SDS011;46285;45.122;20.726;2022-08-14T09:26:36;14.23;;;10.53;;
60430;SDS011;46285;45.122;20.726;2022-08-14T09:29:04;13.48;;;12.18;;
60430;SDS011;46285;45.122;20.726;2022-08-14T09:36:30;11.73;;;10.02;;
60430;SDS011;46285;45.122;20.726;2022-08-14T09:44:38;13.65;;;10.48;;
60430;SDS011;46285;45.122;20.726;2022-08-14T09:47:07;13.48;;;11.35;;
60430;SDS011;46285;45.122;20.726;2022-08-14T09:49:35;13.95;;;11.40;;
60430;SDS011;46285;45.122;20.726;2022-08-14T09:52:12;13.52;;;11.57;;
60430;SDS011;46285;45.122;20.726;2022-08-14T09:57:05;14.93;;;12.18;;
60430;SDS011;46285;45.122;20.726;2022-08-14T09:59:44;12.98;;;11.65;;
60430;SDS011;46285;45.122;20.726;2022-08-14T10:02:28;13.43;;;11.10;;
60430;SDS011;46285;45.122;20.726;2022-08-14T10:05:01;12.70;;;11.40;;
60430;SDS011;46285;45.122;20.726;2022-08-14T10:07:31;12.68;;;11.13;;
60430;SDS011;46285;45.122;20.726;2022-08-14T10:09:57;12.50;;;11.20;;
60430;SDS011;46285;45.122;20.726;2022-08-14T10:14:51;13.18;;;11.85;;
60430;SDS011;46285;45.122;20.726;2022-08-14T10:17:21;15.02;;;12.10;;
60430;SDS011;46285;45.122;20.726;2022-08-14T10:19:51;15.05;;;11.93;;
60430;SDS011;46285;45.122;20.726;2022-08-14T10:22:23;14.07;;;10.68;;
60430;SDS011;46285;45.122;20.726;2022-08-14T10:24:49;13.98;;;11.40;;
60430;SDS011;46285;45.122;20.726;2022-08-14T10:27:17;13.43;;;11.30;;
60430;SDS011;46285;45.122;20.726;2022-08-14T10:29:47;11.90;;;10.30;;
60430;SDS011;46285;45.122;20.726;2022-08-14T10:32:13;11.57;;;10.38;;
60430;SDS011;46285;45.122;20.726;2022-08-14T10:34:40;12.00;;;9.43;;
60430;SDS011;46285;45.122;20.726;2022-08-14T10:37:09;11.63;;;10.23;;
60430;SDS011;46285;45.122;20.726;2022-08-14T10:39:36;12.63;;;9.75;;
60430;SDS011;46285;45.122;20.726;2022-08-14T10:42:07;10.73;;;9.30;;
60430;SDS011;46285;45.122;20.726;2022-08-14T10:44:37;11.70;;;10.10;;
60430;SDS011;46285;45.122;20.726;2022-08-14T10:47:04;10.15;;;9.05;;
60430;SDS011;46285;45.122;20.726;2022-08-14T10:49:42;10.68;;;8.73;;
60430;SDS011;46285;45.122;20.726;2022-08-14T10:52:20;10.50;;;9.38;;
60430;SDS011;46285;45.122;20.726;2022-08-14T10:54:48;12.70;;;11.32;;
60430;SDS011;46285;45.122;20.726;2022-08-14T10:59:43;12.73;;;10.45;;
60430;SDS011;46285;45.122;20.726;2022-08-14T11:02:23;12.13;;;9.25;;
60430;SDS011;46285;45.122;20.726;2022-08-14T11:05:00;12.55;;;10.25;;
60430;SDS011;46285;45.122;20.726;2022-08-14T11:07:27;11.02;;;9.43;;
60430;SDS011;46285;45.122;20.726;2022-08-14T11:09:54;10.60;;;8.18;;
60430;SDS011;46285;45.122;20.726;2022-08-14T11:12:21;10.68;;;8.00;;
60430;SDS011;46285;45.122;20.726;2022-08-14T11:14:51;12.68;;;9.43;;
60430;SDS011;46285;45.122;20.726;2022-08-14T11:17:19;10.32;;;7.88;;
60430;SDS011;46285;45.122;20.726;2022-08-14T11:19:46;9.18;;;8.05;;
60430;SDS011;46285;45.122;20.726;2022-08-14T11:22:13;9.40;;;6.70;;
60430;SDS011;46285;45.122;20.726;2022-08-14T11:24:40;9.38;;;7.78;;
60430;SDS011;46285;45.122;20.726;2022-08-14T11:27:11;8.93;;;7.35;;
60430;SDS011;46285;45.122;20.726;2022-08-14T11:29:39;9.88;;;7.40;;
60430;SDS011;46285;45.122;20.726;2022-08-14T11:32:06;8.85;;;7.38;;
60430;SDS011;46285;45.122;20.726;2022-08-14T11:34:37;9.43;;;7.28;;
60430;SDS011;46285;45.122;20.726;2022-08-14T11:37:07;9.05;;;6.68;;
60430;SDS011;46285;45.122;20.726;2022-08-14T11:39:33;10.13;;;7.20;;
60430;SDS011;46285;45.122;20.726;2022-08-14T11:41:59;10.15;;;7.45;;
60430;SDS011;46285;45.122;20.726;2022-08-14T11:44:27;10.90;;;6.85;;
60430;SDS011;46285;45.122;20.726;2022-08-14T11:46:53;10.13;;;6.15;;
60430;SDS011;46285;45.122;20.726;2022-08-14T11:49:26;7.97;;;6.35;;
60430;SDS011;46285;45.122;20.726;2022-08-14T11:51:53;9.70;;;7.18;;
60430;SDS011;46285;45.122;20.726;2022-08-14T11:54:20;8.98;;;6.70;;
60430;SDS011;46285;45.122;20.726;2022-08-14T11:56:46;8.45;;;5.93;;
60430;SDS011;46285;45.122;20.726;2022-08-14T11:59:14;10.13;;;7.20;;
60430;SDS011;46285;45.122;20.726;2022-08-14T12:01:42;11.07;;;7.45;;
60430;SDS011;46285;45.122;20.726;2022-08-14T12:04:15;10.00;;;7.30;;
60430;SDS011;46285;45.122;20.726;2022-08-14T12:06:46;10.23;;;8.20;;
60430;SDS011;46285;45.122;20.726;2022-08-14T12:09:13;10.30;;;7.88;;
60430;SDS011;46285;45.122;20.726;2022-08-14T12:11:40;9.23;;;7.60;;
60430;SDS011;46285;45.122;20.726;2022-08-14T12:14:07;8.85;;;7.55;;
60430;SDS011;46285;45.122;20.726;2022-08-14T12:16:33;13.00;;;7.88;;
60430;SDS011;46285;45.122;20.726;2022-08-14T12:19:02;10.30;;;8.10;;
60430;SDS011;46285;45.122;20.726;2022-08-14T12:21:30;9.40;;;7.43;;
60430;SDS011;46285;45.122;20.726;2022-08-14T12:24:03;11.07;;;8.33;;
60430;SDS011;46285;45.122;20.726;2022-08-14T12:26:30;9.98;;;7.65;;
60430;SDS011;46285;45.122;20.726;2022-08-14T12:29:06;11.43;;;7.72;;
60430;SDS011;46285;45.122;20.726;2022-08-14T12:31:33;9.52;;;7.57;;
60430;SDS011;46285;45.122;20.726;2022-08-14T12:34:00;9.15;;;7.00;;
60430;SDS011;46285;45.122;20.726;2022-08-14T12:36:27;10.20;;;7.75;;
60430;SDS011;46285;45.122;20.726;2022-08-14T12:38:57;10.40;;;7.68;;
60430;SDS011;46285;45.122;20.726;2022-08-14T12:41:25;9.07;;;7.72;;
60430;SDS011;46285;45.122;20.726;2022-08-14T12:44:01;9.73;;;7.13;;
60430;SDS011;46285;45.122;20.726;2022-08-14T12:46:29;9.77;;;7.13;;
60430;SDS011;46285;45.122;20.726;2022-08-14T12:48:57;9.32;;;7.53;;
60430;SDS011;46285;45.122;20.726;2022-08-14T12:51:24;8.40;;;7.10;;
60430;SDS011;46285;45.122;20.726;2022-08-14T12:53:51;12.40;;;7.55;;
60430;SDS011;46285;45.122;20.726;2022-08-14T12:56:18;11.55;;;6.75;;
60430;SDS011;46285;45.122;20.726;2022-08-14T12:58:48;8.98;;;7.10;;
60430;SDS011;46285;45.122;20.726;2022-08-14T13:01:19;8.98;;;7.07;;
60430;SDS011;46285;45.122;20.726;2022-08-14T13:03:46;11.10;;;7.30;;
60430;SDS011;46285;45.122;20.726;2022-08-14T13:06:13;13.45;;;7.07;;
60430;SDS011;46285;45.122;20.726;2022-08-14T13:08:39;8.90;;;7.28;;
60430;SDS011;46285;45.122;20.726;2022-08-14T13:11:12;9.25;;;7.13;;
60430;SDS011;46285;45.122;20.726;2022-08-14T13:13:41;10.57;;;6.82;;
60430;SDS011;46285;45.122;20.726;2022-08-14T13:16:11;10.43;;;8.25;;
60430;SDS011;46285;45.122;20.726;2022-08-14T13:18:40;10.18;;;8.52;;
60430;SDS011;46285;45.122;20.726;2022-08-14T13:21:09;11.40;;;8.32;;
60430;SDS011;46285;45.122;20.726;2022-08-14T13:23:35;10.95;;;7.32;;
60430;SDS011;46285;45.122;20.726;2022-08-14T13:26:02;10.27;;;7.72;;
60430;SDS011;46285;45.122;20.726;2022-08-14T13:28:30;9.35;;;8.02;;
60430;SDS011;46285;45.122;20.726;2022-08-14T13:30:56;8.55;;;7.65;;
60430;SDS011;46285;45.122;20.726;2022-08-14T13:33:24;10.07;;;7.68;;
60430;SDS011;46285;45.122;20.726;2022-08-14T13:35:51;10.82;;;8.25;;
60430;SDS011;46285;45.122;20.726;2022-08-14T13:38:18;9.48;;;7.80;;
60430;SDS011;46285;45.122;20.726;2022-08-14T13:40:46;10.90;;;7.30;;
60430;SDS011;46285;45.122;20.726;2022-08-14T13:43:20;11.43;;;7.97;;
60430;SDS011;46285;45.122;20.726;2022-08-14T13:45:48;9.85;;;8.15;;
60430;SDS011;46285;45.122;20.726;2022-08-14T13:48:14;8.95;;;7.30;;
60430;SDS011;46285;45.122;20.726;2022-08-14T13:50:41;10.63;;;8.23;;
60430;SDS011;46285;45.122;20.726;2022-08-14T13:53:11;9.30;;;7.30;;
60430;SDS011;46285;45.122;20.726;2022-08-14T13:55:38;10.95;;;8.35;;
60430;SDS011;46285;45.122;20.726;2022-08-14T13:58:05;12.30;;;8.57;;
60430;SDS011;46285;45.122;20.726;2022-08-14T14:00:32;8.98;;;7.78;;
60430;SDS011;46285;45.122;20.726;2022-08-14T14:03:05;10.70;;;7.63;;
60430;SDS011;46285;45.122;20.726;2022-08-14T14:05:54;8.27;;;6.70;;
60430;SDS011;46285;45.122;20.726;2022-08-14T14:08:21;9.38;;;6.75;;
60430;SDS011;46285;45.122;20.726;2022-08-14T14:13:14;9.27;;;7.18;;
60430;SDS011;46285;45.122;20.726;2022-08-14T14:15:42;11.05;;;7.03;;
60430;SDS011;46285;45.122;20.726;2022-08-14T14:18:09;8.63;;;6.73;;
60430;SDS011;46285;45.122;20.726;2022-08-14T14:20:35;8.85;;;6.80;;
60430;SDS011;46285;45.122;20.726;2022-08-14T14:25:29;11.02;;;7.13;;
60430;SDS011;46285;45.122;20.726;2022-08-14T14:27:55;8.37;;;6.47;;
60430;SDS011;46285;45.122;20.726;2022-08-14T14:30:23;9.95;;;6.82;;
60430;SDS011;46285;45.122;20.726;2022-08-14T14:32:51;9.73;;;6.35;;
60430;SDS011;46285;45.122;20.726;2022-08-14T14:35:18;8.82;;;7.00;;
60430;SDS011;46285;45.122;20.726;2022-08-14T14:37:44;10.27;;;6.43;;
60430;SDS011;46285;45.122;20.726;2022-08-14T14:40:12;9.57;;;6.82;;
60430;SDS011;46285;45.122;20.726;2022-08-14T14:42:49;8.32;;;6.07;;
60430;SDS011;46285;45.122;20.726;2022-08-14T14:45:17;8.37;;;5.43;;
60430;SDS011;46285;45.122;20.726;2022-08-14T14:47:45;9.93;;;6.10;;
60430;SDS011;46285;45.122;20.726;2022-08-14T14:50:12;9.73;;;6.07;;
60430;SDS011;46285;45.122;20.726;2022-08-14T14:52:38;9.15;;;6.65;;
60430;SDS011;46285;45.122;20.726;2022-08-14T14:55:06;8.18;;;5.32;;
60430;SDS011;46285;45.122;20.726;2022-08-14T14:57:33;9.93;;;7.32;;
60430;SDS011;46285;45.122;20.726;2022-08-14T14:59:59;8.68;;;5.85;;
60430;SDS011;46285;45.122;20.726;2022-08-14T15:02:33;9.07;;;6.65;;
60430;SDS011;46285;45.122;20.726;2022-08-14T15:04:59;9.02;;;6.15;;